Albertville, Alabama
Current Conditions -  °F | °C
As of 12:15 PM on Tuesday 21 Oct 2014 (Local Time) from K8A0 Reporting Station
Clear Clear  
Wind Chill: 68°   Ceiling: Unl
Heat Index: 68°   Visibility: 10mi
Dew Point: 55°   Wind: 10mph
Humidity: 64%   Direction: 320°NW
Pressure: 30.04"   Gusts: NA
Location:  34.27°N, 86.21°W
Report Text: K8A0 211715Z AUTO 32009KT 10SM CLR 20/13 A3004 RMK AO2
Loading
Personal Weather Stations






























Interactive Weather Map
Tropical Storm Tracking
New forecast layout! Learn more

10-Day Weather Forecast

Advertisements
Track Severe Weather on mobile